Flight Track Log - Related Links

Times and Time Zones

All times are in EDT time to prevent confusion due to time zone crossing. See the N350WA flight status page for this flight to view local times or setup timezone preferences in your user account.

Time Position Orientation Groundspeed Altitude Reporting Facility
EDT Latitude Longitude Course Direction KTS MPH feet Rate Location/Type
Fri 12:36:21 PM 37.4667 -122.2000 122° Southeast 123 142 2,100  Level Northern Cal TRACON
Fri 12:37:21 PM 37.4333 -122.1667 142° Southeast 146 168 2,900 400 Climbing Northern Cal TRACON
Fri 12:38:21 PM 37.4333 -122.1000 90° East 191 220 2,900 -50 Level Northern Cal TRACON
Fri 12:39:21 PM 37.4500 -122.0500 67° East 193 222 2,800 -50 Descending Northern Cal TRACON
Fri 12:40:21 PM 37.4500 -121.9833 90° East 195 224 2,800 450 Level Northern Cal TRACON
Fri 12:41:21 PM 37.4333 -121.9333 113° Southeast 177 204 3,700 1,000 Climbing Northern Cal TRACON
Fri 12:42:21 PM 37.4667 -121.9000 38° Northeast 176 203 4,800 600 Climbing Northern Cal TRACON
Fri 12:43:21 PM 37.5167 -121.8833 15° North 194 223 4,900 50 Climbing Northern Cal TRACON
Fri 12:44:21 PM 37.5667 -121.8500 28° Northeast 208 239 4,900 350 Level Northern Cal TRACON
Fri 12:45:21 PM 37.6167 -121.8167 28° Northeast 195 224 5,600 500 Climbing Northern Cal TRACON
Fri 12:46:21 PM 37.6667 -121.8000 15° North 194 223 5,900 750 Climbing Northern Cal TRACON
Fri 12:47:21 PM 37.7167 -121.8000 360° North 193 222 7,100 1,050 Climbing Northern Cal TRACON
Fri 12:48:21 PM 37.7667 -121.7833 15° North 184 212 8,000 939 Climbing Northern Cal TRACON
Fri 12:49:16 PM 37.8167 -121.7667 15° North 186 214 8,900 887 Climbing Northern Cal TRACON
Fri 12:50:16 PM 37.8667 -121.7500 15° North 194 223 9,700 950 Climbing Northern Cal TRACON
Fri 12:51:16 PM 37.9167 -121.7333 15° North 181 208 10,800 910 Climbing Northern Cal TRACON
Fri 12:52:41 PM 37.9836 -121.7025 20° North 188 216 11,900 816 Climbing Oakland Center
Fri 12:53:43 PM 38.0339 -121.6856 15° North 189 217 12,800 829 Climbing Oakland Center
Fri 12:54:44 PM 38.0842 -121.6717 12° North 187 215 13,600 878 Climbing Oakland Center
Fri 12:55:46 PM 38.1464 -121.6531 13° North 192 221 14,600 823 Climbing Oakland Center
Fri 12:56:48 PM 38.1967 -121.6369 14° North 189 217 15,300 683 Climbing Oakland Center
Fri 12:57:49 PM 38.2494 -121.6164 17° North 194 223 16,000 780 Climbing Oakland Center
Fri 12:58:51 PM 38.2994 -121.6003 14° North 191 220 16,900 726 Climbing Oakland Center
Fri 12:59:53 PM 38.3486 -121.5842 14° North 185 213 17,500 732 Climbing Oakland Center
Fri 01:00:54 PM 38.3983 -121.5692 13° North 184 212 18,400 780 Climbing Oakland Center
Fri 01:01:56 PM 38.4447 -121.5519 16° North 174 200 19,100 732 Climbing Oakland Center
Fri 01:02:57 PM 38.4903 -121.5044 39° Northeast 178 205 19,900 683 Climbing Oakland Center
Fri 01:03:59 PM 38.5169 -121.4569 54° Northeast 170 196 20,500 484 Climbing Oakland Center
Fri 01:05:01 PM 38.5408 -121.4019 61° Northeast 177 204 20,900 244 Climbing Oakland Center
Fri 01:06:02 PM 38.5650 -121.3403 63° Northeast 194 223 21,000 49 Climbing Oakland Center
Fri 01:07:04 PM 38.5989 -121.2775 55° Northeast 207 238 21,000  Level Oakland Center
Fri 01:08:06 PM 38.6406 -121.2178 48° Northeast 229 264 21,000  Level Oakland Center
Fri 01:09:07 PM 38.6844 -121.1508 50° Northeast 224 258 21,000  Level Oakland Center
Fri 01:10:09 PM 38.7219 -121.0875 53° Northeast 224 258 21,000  Level Oakland Center
Fri 01:11:10 PM 38.7569 -121.0233 55° Northeast 220 253 21,000  Level Oakland Center
Fri 01:12:12 PM 38.7922 -120.9572 56° Northeast 223 257 21,000  Level Oakland Center
Fri 01:13:14 PM 38.8286 -120.8928 54° Northeast 223 257 21,000  Level Oakland Center
Fri 01:14:15 PM 38.8650 -120.8303 53° Northeast 220 253 21,000  Level Oakland Center
Fri 01:15:17 PM 38.9114 -120.7533 52° Northeast 226 260 21,000 -48 Level Oakland Center
Fri 01:16:19 PM 38.9483 -120.6894 53° Northeast 224 258 20,900 -341 Descending Oakland Center
Fri 01:17:20 PM 38.9850 -120.6258 53° Northeast 220 253 20,300 -732 Descending Oakland Center
Fri 01:18:22 PM 39.0406 -120.5872 28° Northeast 231 266 19,400 -774 Descending Oakland Center
Fri 01:19:24 PM 39.0997 -120.5544 23° Northeast 231 266 18,700 -1,073 Descending Oakland Center
Fri 01:20:25 PM 39.1564 -120.5183 26° Northeast 228 262 17,200 -1,561 Descending Oakland Center
Fri 01:21:27 PM 39.2083 -120.4750 33° Northeast 223 257 15,500 -1,561 Descending Oakland Center
Fri 01:22:28 PM 39.2394 -120.3892 65° Northeast 217 250 14,000 -1,415 Descending Oakland Center
Fri 01:23:30 PM 39.2642 -120.3225 64° Northeast 210 242 12,600 -1,548 Descending Oakland Center
Fri 01:24:32 PM 39.2972 -120.2606 55° Northeast 208 239 10,800 -1,742 Descending Oakland Center

Login

Don't have an account? Register now (free) for customized features, flight alerts, and more!